sensor_id;sensor_type;location;lat;lon;timestamp;temperature;humidity
57088;DHT22;42965;52.846;6.614;2023-05-31T00:01:03;10.10;99.90
57088;DHT22;42965;52.846;6.614;2023-05-31T00:03:29;10.10;99.90
57088;DHT22;42965;52.846;6.614;2023-05-31T00:05:56;10.10;99.90
57088;DHT22;42965;52.846;6.614;2023-05-31T00:08:22;10.10;99.90
57088;DHT22;42965;52.846;6.614;2023-05-31T00:10:49;10.00;99.90
57088;DHT22;42965;52.846;6.614;2023-05-31T00:13:15;10.00;99.90
57088;DHT22;42965;52.846;6.614;2023-05-31T00:15:41;10.00;99.90
57088;DHT22;42965;52.846;6.614;2023-05-31T00:18:08;10.00;99.90
57088;DHT22;42965;52.846;6.614;2023-05-31T00:20:34;9.90;99.90
57088;DHT22;42965;52.846;6.614;2023-05-31T00:23:01;9.90;99.90
57088;DHT22;42965;52.846;6.614;2023-05-31T00:25:28;9.90;99.90
57088;DHT22;42965;52.846;6.614;2023-05-31T00:27:54;9.90;99.90
57088;DHT22;42965;52.846;6.614;2023-05-31T00:30:21;9.90;99.90
57088;DHT22;42965;52.846;6.614;2023-05-31T00:32:47;9.80;99.90
57088;DHT22;42965;52.846;6.614;2023-05-31T00:35:16;9.80;99.90
57088;DHT22;42965;52.846;6.614;2023-05-31T00:37:43;9.80;99.90
57088;DHT22;42965;52.846;6.614;2023-05-31T00:40:09;9.70;99.90
57088;DHT22;42965;52.846;6.614;2023-05-31T00:42:35;9.70;99.90
57088;DHT22;42965;52.846;6.614;2023-05-31T00:45:02;9.70;99.90
57088;DHT22;42965;52.846;6.614;2023-05-31T00:47:30;9.70;99.90
57088;DHT22;42965;52.846;6.614;2023-05-31T00:49:58;9.60;99.90
57088;DHT22;42965;52.846;6.614;2023-05-31T00:52:26;9.60;99.90
57088;DHT22;42965;52.846;6.614;2023-05-31T00:54:53;9.60;99.90
57088;DHT22;42965;52.846;6.614;2023-05-31T00:57:20;9.60;99.90
57088;DHT22;42965;52.846;6.614;2023-05-31T00:59:46;9.60;99.90
57088;DHT22;42965;52.846;6.614;2023-05-31T01:02:14;9.60;99.90
57088;DHT22;42965;52.846;6.614;2023-05-31T01:04:43;9.60;99.90
57088;DHT22;42965;52.846;6.614;2023-05-31T01:07:09;9.50;99.90
57088;DHT22;42965;52.846;6.614;2023-05-31T01:09:36;9.50;99.90
57088;DHT22;42965;52.846;6.614;2023-05-31T01:15:25;9.40;99.90
57088;DHT22;42965;52.846;6.614;2023-05-31T01:17:59;9.40;99.90
57088;DHT22;42965;52.846;6.614;2023-05-31T01:20:31;9.40;99.90
57088;DHT22;42965;52.846;6.614;2023-05-31T01:28:45;9.40;99.90
57088;DHT22;42965;52.846;6.614;2023-05-31T01:31:16;9.30;99.90
57088;DHT22;42965;52.846;6.614;2023-05-31T01:33:43;9.30;99.90
57088;DHT22;42965;52.846;6.614;2023-05-31T01:36:09;9.30;99.90
57088;DHT22;42965;52.846;6.614;2023-05-31T01:38:36;9.30;99.90
57088;DHT22;42965;52.846;6.614;2023-05-31T01:41:03;9.30;99.90
57088;DHT22;42965;52.846;6.614;2023-05-31T01:43:35;9.20;99.90
57088;DHT22;42965;52.846;6.614;2023-05-31T01:46:05;9.20;99.90
57088;DHT22;42965;52.846;6.614;2023-05-31T01:48:32;9.20;99.90
57088;DHT22;42965;52.846;6.614;2023-05-31T01:50:59;9.20;99.90
57088;DHT22;42965;52.846;6.614;2023-05-31T01:53:26;9.20;99.90
57088;DHT22;42965;52.846;6.614;2023-05-31T01:55:53;9.20;99.90
57088;DHT22;42965;52.846;6.614;2023-05-31T01:58:22;9.20;99.90
57088;DHT22;42965;52.846;6.614;2023-05-31T02:00:49;9.20;99.90
57088;DHT22;42965;52.846;6.614;2023-05-31T02:03:18;9.20;99.90
57088;DHT22;42965;52.846;6.614;2023-05-31T02:05:57;9.20;99.90
57088;DHT22;42965;52.846;6.614;2023-05-31T02:08:25;9.20;99.90
57088;DHT22;42965;52.846;6.614;2023-05-31T02:10:53;9.10;99.90
57088;DHT22;42965;52.846;6.614;2023-05-31T02:13:25;9.10;99.90
57088;DHT22;42965;52.846;6.614;2023-05-31T02:15:52;9.10;99.90
57088;DHT22;42965;52.846;6.614;2023-05-31T02:18:20;9.10;99.90
57088;DHT22;42965;52.846;6.614;2023-05-31T02:20:48;9.10;99.90
57088;DHT22;42965;52.846;6.614;2023-05-31T02:23:19;9.10;99.90
57088;DHT22;42965;52.846;6.614;2023-05-31T02:25:53;9.10;99.90
57088;DHT22;42965;52.846;6.614;2023-05-31T02:28:21;9.00;99.90
57088;DHT22;42965;52.846;6.614;2023-05-31T02:30:57;9.00;99.90
57088;DHT22;42965;52.846;6.614;2023-05-31T02:33:24;9.00;99.90
57088;DHT22;42965;52.846;6.614;2023-05-31T02:35:54;9.00;99.90
57088;DHT22;42965;52.846;6.614;2023-05-31T02:38:23;8.90;99.90
57088;DHT22;42965;52.846;6.614;2023-05-31T02:40:50;8.90;99.90
57088;DHT22;42965;52.846;6.614;2023-05-31T02:43:17;8.90;99.90
57088;DHT22;42965;52.846;6.614;2023-05-31T02:45:43;8.90;99.90
57088;DHT22;42965;52.846;6.614;2023-05-31T02:48:10;8.90;99.90
57088;DHT22;42965;52.846;6.614;2023-05-31T02:50:37;8.90;99.90
57088;DHT22;42965;52.846;6.614;2023-05-31T02:53:10;8.90;99.90
57088;DHT22;42965;52.846;6.614;2023-05-31T02:55:57;8.80;99.90
57088;DHT22;42965;52.846;6.614;2023-05-31T02:58:23;8.80;99.90
57088;DHT22;42965;52.846;6.614;2023-05-31T03:01:07;8.80;99.90
57088;DHT22;42965;52.846;6.614;2023-05-31T03:03:41;8.80;99.90
57088;DHT22;42965;52.846;6.614;2023-05-31T03:06:19;8.80;99.90
57088;DHT22;42965;52.846;6.614;2023-05-31T03:08:48;8.80;99.90
57088;DHT22;42965;52.846;6.614;2023-05-31T03:11:14;8.80;99.90
57088;DHT22;42965;52.846;6.614;2023-05-31T03:13:41;8.80;99.90
57088;DHT22;42965;52.846;6.614;2023-05-31T03:16:07;8.80;99.90
57088;DHT22;42965;52.846;6.614;2023-05-31T03:18:34;8.80;99.90
57088;DHT22;42965;52.846;6.614;2023-05-31T03:21:00;8.80;99.90
57088;DHT22;42965;52.846;6.614;2023-05-31T03:23:27;8.70;99.90
57088;DHT22;42965;52.846;6.614;2023-05-31T03:25:53;8.70;99.90
57088;DHT22;42965;52.846;6.614;2023-05-31T03:28:21;8.70;99.90
57088;DHT22;42965;52.846;6.614;2023-05-31T03:30:47;8.70;99.90
57088;DHT22;42965;52.846;6.614;2023-05-31T03:33:14;8.70;99.90
57088;DHT22;42965;52.846;6.614;2023-05-31T03:35:40;8.70;99.90
57088;DHT22;42965;52.846;6.614;2023-05-31T03:38:07;8.70;99.90
57088;DHT22;42965;52.846;6.614;2023-05-31T03:40:34;8.70;99.90
57088;DHT22;42965;52.846;6.614;2023-05-31T03:43:01;8.70;99.90
57088;DHT22;42965;52.846;6.614;2023-05-31T03:45:27;8.70;99.90
57088;DHT22;42965;52.846;6.614;2023-05-31T03:47:54;8.70;99.90
57088;DHT22;42965;52.846;6.614;2023-05-31T03:50:21;8.70;99.90
57088;DHT22;42965;52.846;6.614;2023-05-31T03:52:47;8.80;99.90
57088;DHT22;42965;52.846;6.614;2023-05-31T03:55:14;8.80;99.90
57088;DHT22;42965;52.846;6.614;2023-05-31T03:57:41;8.80;99.90
57088;DHT22;42965;52.846;6.614;2023-05-31T04:00:09;8.80;99.90
57088;DHT22;42965;52.846;6.614;2023-05-31T04:02:40;8.80;99.90
57088;DHT22;42965;52.846;6.614;2023-05-31T04:05:07;8.80;99.90
57088;DHT22;42965;52.846;6.614;2023-05-31T04:07:34;8.80;99.90
57088;DHT22;42965;52.846;6.614;2023-05-31T04:10:00;8.80;99.90
57088;DHT22;42965;52.846;6.614;2023-05-31T04:12:26;8.80;99.90
57088;DHT22;42965;52.846;6.614;2023-05-31T04:14:52;8.90;99.90
57088;DHT22;42965;52.846;6.614;2023-05-31T04:17:21;8.90;99.90
57088;DHT22;42965;52.846;6.614;2023-05-31T04:19:47;9.00;99.90
57088;DHT22;42965;52.846;6.614;2023-05-31T04:22:13;9.00;99.90
57088;DHT22;42965;52.846;6.614;2023-05-31T04:24:40;9.00;99.90
57088;DHT22;42965;52.846;6.614;2023-05-31T04:27:07;9.10;99.90
57088;DHT22;42965;52.846;6.614;2023-05-31T04:29:36;9.20;99.90
57088;DHT22;42965;52.846;6.614;2023-05-31T04:32:04;9.20;99.90
57088;DHT22;42965;52.846;6.614;2023-05-31T04:34:31;9.30;99.90
57088;DHT22;42965;52.846;6.614;2023-05-31T04:36:58;9.30;99.90
57088;DHT22;42965;52.846;6.614;2023-05-31T04:39:26;9.40;99.90
57088;DHT22;42965;52.846;6.614;2023-05-31T04:41:56;9.50;99.90
57088;DHT22;42965;52.846;6.614;2023-05-31T04:44:25;9.50;99.90
57088;DHT22;42965;52.846;6.614;2023-05-31T04:46:53;9.60;99.90
57088;DHT22;42965;52.846;6.614;2023-05-31T04:49:20;9.70;99.90
57088;DHT22;42965;52.846;6.614;2023-05-31T04:51:48;9.80;99.90
57088;DHT22;42965;52.846;6.614;2023-05-31T04:54:14;9.80;99.90
57088;DHT22;42965;52.846;6.614;2023-05-31T04:56:41;10.00;99.90
57088;DHT22;42965;52.846;6.614;2023-05-31T04:59:07;10.00;99.90
57088;DHT22;42965;52.846;6.614;2023-05-31T05:01:34;10.10;99.90
57088;DHT22;42965;52.846;6.614;2023-05-31T05:04:13;10.30;99.90
57088;DHT22;42965;52.846;6.614;2023-05-31T05:06:40;10.40;99.90
57088;DHT22;42965;52.846;6.614;2023-05-31T05:09:08;10.60;99.90
57088;DHT22;42965;52.846;6.614;2023-05-31T05:11:36;10.80;99.90
57088;DHT22;42965;52.846;6.614;2023-05-31T05:14:02;11.00;99.90
57088;DHT22;42965;52.846;6.614;2023-05-31T05:16:29;11.20;99.90
57088;DHT22;42965;52.846;6.614;2023-05-31T05:18:56;11.50;99.90
57088;DHT22;42965;52.846;6.614;2023-05-31T05:21:24;11.80;99.90
57088;DHT22;42965;52.846;6.614;2023-05-31T05:23:51;12.00;99.90
57088;DHT22;42965;52.846;6.614;2023-05-31T05:26:18;12.30;99.90
57088;DHT22;42965;52.846;6.614;2023-05-31T05:28:44;12.70;99.90
57088;DHT22;42965;52.846;6.614;2023-05-31T05:31:11;13.00;99.90
57088;DHT22;42965;52.846;6.614;2023-05-31T05:33:43;13.30;99.90
57088;DHT22;42965;52.846;6.614;2023-05-31T05:36:09;13.40;99.90
57088;DHT22;42965;52.846;6.614;2023-05-31T05:38:43;13.70;99.90
57088;DHT22;42965;52.846;6.614;2023-05-31T05:41:09;13.90;99.90
57088;DHT22;42965;52.846;6.614;2023-05-31T05:43:39;14.20;99.90
57088;DHT22;42965;52.846;6.614;2023-05-31T05:46:10;14.20;99.90
57088;DHT22;42965;52.846;6.614;2023-05-31T05:48:36;14.40;99.90
57088;DHT22;42965;52.846;6.614;2023-05-31T05:51:02;14.50;99.90
57088;DHT22;42965;52.846;6.614;2023-05-31T05:53:30;14.70;99.90
57088;DHT22;42965;52.846;6.614;2023-05-31T05:55:57;14.90;99.90
57088;DHT22;42965;52.846;6.614;2023-05-31T06:06:19;15.60;99.90
57088;DHT22;42965;52.846;6.614;2023-05-31T06:08:49;15.80;99.90
57088;DHT22;42965;52.846;6.614;2023-05-31T06:11:16;15.80;99.90
57088;DHT22;42965;52.846;6.614;2023-05-31T06:13:45;15.90;99.90
57088;DHT22;42965;52.846;6.614;2023-05-31T06:16:13;15.90;99.90
57088;DHT22;42965;52.846;6.614;2023-05-31T06:18:40;16.20;99.90
57088;DHT22;42965;52.846;6.614;2023-05-31T06:21:06;16.40;99.90
57088;DHT22;42965;52.846;6.614;2023-05-31T06:23:33;16.40;99.90
57088;DHT22;42965;52.846;6.614;2023-05-31T06:26:00;16.40;99.90
57088;DHT22;42965;52.846;6.614;2023-05-31T06:28:27;16.70;99.90
57088;DHT22;42965;52.846;6.614;2023-05-31T06:30:55;16.70;99.90
57088;DHT22;42965;52.846;6.614;2023-05-31T06:33:24;16.70;99.90
57088;DHT22;42965;52.846;6.614;2023-05-31T06:35:51;16.90;99.90
57088;DHT22;42965;52.846;6.614;2023-05-31T06:38:17;16.90;99.90
57088;DHT22;42965;52.846;6.614;2023-05-31T06:40:46;17.00;99.90
57088;DHT22;42965;52.846;6.614;2023-05-31T06:43:12;17.00;99.90
57088;DHT22;42965;52.846;6.614;2023-05-31T06:46:02;17.10;99.90
57088;DHT22;42965;52.846;6.614;2023-05-31T06:49:06;17.50;99.90
57088;DHT22;42965;52.846;6.614;2023-05-31T06:51:55;17.70;99.90
57088;DHT22;42965;52.846;6.614;2023-05-31T06:54:30;17.60;99.90
57088;DHT22;42965;52.846;6.614;2023-05-31T06:56:59;17.80;99.90
57088;DHT22;42965;52.846;6.614;2023-05-31T06:59:26;18.00;99.90
57088;DHT22;42965;52.846;6.614;2023-05-31T07:01:52;18.10;99.90
57088;DHT22;42965;52.846;6.614;2023-05-31T07:04:21;18.20;99.90
57088;DHT22;42965;52.846;6.614;2023-05-31T07:06:48;18.40;99.90
57088;DHT22;42965;52.846;6.614;2023-05-31T07:09:14;18.60;99.90
57088;DHT22;42965;52.846;6.614;2023-05-31T07:11:53;18.60;99.90
57088;DHT22;42965;52.846;6.614;2023-05-31T07:14:19;18.70;99.90
57088;DHT22;42965;52.846;6.614;2023-05-31T07:16:46;18.80;99.90
57088;DHT22;42965;52.846;6.614;2023-05-31T07:19:12;18.90;99.90
57088;DHT22;42965;52.846;6.614;2023-05-31T07:21:40;18.80;99.90
57088;DHT22;42965;52.846;6.614;2023-05-31T07:24:08;19.10;99.90
57088;DHT22;42965;52.846;6.614;2023-05-31T07:26:36;18.90;99.90
57088;DHT22;42965;52.846;6.614;2023-05-31T07:29:02;19.00;99.90
57088;DHT22;42965;52.846;6.614;2023-05-31T07:31:29;19.40;99.90
57088;DHT22;42965;52.846;6.614;2023-05-31T07:33:55;19.50;99.90
57088;DHT22;42965;52.846;6.614;2023-05-31T07:36:22;19.70;99.90
57088;DHT22;42965;52.846;6.614;2023-05-31T07:38:51;19.80;99.90
57088;DHT22;42965;52.846;6.614;2023-05-31T07:41:22;20.10;99.90
57088;DHT22;42965;52.846;6.614;2023-05-31T07:43:49;20.30;99.90
57088;DHT22;42965;52.846;6.614;2023-05-31T07:46:16;20.30;99.90
57088;DHT22;42965;52.846;6.614;2023-05-31T07:48:43;20.50;99.90
57088;DHT22;42965;52.846;6.614;2023-05-31T07:51:09;20.70;99.90
57088;DHT22;42965;52.846;6.614;2023-05-31T07:53:35;20.80;99.90
57088;DHT22;42965;52.846;6.614;2023-05-31T07:56:02;21.00;99.90
57088;DHT22;42965;52.846;6.614;2023-05-31T07:58:28;21.30;99.90
57088;DHT22;42965;52.846;6.614;2023-05-31T08:00:55;21.50;99.90
57088;DHT22;42965;52.846;6.614;2023-05-31T08:03:21;21.80;99.90
57088;DHT22;42965;52.846;6.614;2023-05-31T08:05:48;21.80;99.90
57088;DHT22;42965;52.846;6.614;2023-05-31T08:08:15;21.70;99.90
57088;DHT22;42965;52.846;6.614;2023-05-31T08:10:42;22.00;99.90
57088;DHT22;42965;52.846;6.614;2023-05-31T08:13:08;21.90;99.90
57088;DHT22;42965;52.846;6.614;2023-05-31T08:15:34;22.00;99.90
57088;DHT22;42965;52.846;6.614;2023-05-31T08:18:01;22.20;99.90
57088;DHT22;42965;52.846;6.614;2023-05-31T08:20:27;22.50;99.90
57088;DHT22;42965;52.846;6.614;2023-05-31T08:22:54;22.70;99.90
57088;DHT22;42965;52.846;6.614;2023-05-31T08:25:21;22.70;92.90
57088;DHT22;42965;52.846;6.614;2023-05-31T08:27:48;23.00;92.30
57088;DHT22;42965;52.846;6.614;2023-05-31T08:30:14;23.10;92.60
57088;DHT22;42965;52.846;6.614;2023-05-31T08:32:41;23.30;90.20
57088;DHT22;42965;52.846;6.614;2023-05-31T08:35:08;23.00;90.50
57088;DHT22;42965;52.846;6.614;2023-05-31T08:37:38;23.40;83.40
57088;DHT22;42965;52.846;6.614;2023-05-31T08:40:05;23.40;81.10
57088;DHT22;42965;52.846;6.614;2023-05-31T08:42:39;23.50;82.50
57088;DHT22;42965;52.846;6.614;2023-05-31T08:45:08;23.80;69.00
57088;DHT22;42965;52.846;6.614;2023-05-31T08:50:10;23.60;64.80
57088;DHT22;42965;52.846;6.614;2023-05-31T08:52:36;23.80;66.00
57088;DHT22;42965;52.846;6.614;2023-05-31T08:55:04;24.00;66.40
57088;DHT22;42965;52.846;6.614;2023-05-31T08:57:31;24.00;65.80
57088;DHT22;42965;52.846;6.614;2023-05-31T08:59:58;24.40;64.50
57088;DHT22;42965;52.846;6.614;2023-05-31T09:02:28;24.60;63.70
57088;DHT22;42965;52.846;6.614;2023-05-31T09:04:56;24.70;62.50
57088;DHT22;42965;52.846;6.614;2023-05-31T09:07:23;24.60;60.00
57088;DHT22;42965;52.846;6.614;2023-05-31T09:09:49;24.90;61.00
57088;DHT22;42965;52.846;6.614;2023-05-31T09:12:15;25.10;60.00
57088;DHT22;42965;52.846;6.614;2023-05-31T09:14:41;25.00;60.00
57088;DHT22;42965;52.846;6.614;2023-05-31T09:17:08;25.10;60.00
57088;DHT22;42965;52.846;6.614;2023-05-31T09:19:40;25.20;59.30
57088;DHT22;42965;52.846;6.614;2023-05-31T09:22:07;25.40;57.60
57088;DHT22;42965;52.846;6.614;2023-05-31T09:24:33;25.50;56.40
57088;DHT22;42965;52.846;6.614;2023-05-31T09:26:59;25.70;57.70
57088;DHT22;42965;52.846;6.614;2023-05-31T09:29:27;25.90;57.60
57088;DHT22;42965;52.846;6.614;2023-05-31T09:32:09;26.00;57.70
57088;DHT22;42965;52.846;6.614;2023-05-31T10:30:51;27.90;50.70
57088;DHT22;42965;52.846;6.614;2023-05-31T10:33:20;28.00;50.00
57088;DHT22;42965;52.846;6.614;2023-05-31T10:35:47;27.60;49.40
57088;DHT22;42965;52.846;6.614;2023-05-31T10:38:14;28.10;50.80
57088;DHT22;42965;52.846;6.614;2023-05-31T10:40:56;28.00;50.50
57088;DHT22;42965;52.846;6.614;2023-05-31T10:43:30;28.20;49.30
57088;DHT22;42965;52.846;6.614;2023-05-31T10:46:02;28.50;50.70
57088;DHT22;42965;52.846;6.614;2023-05-31T10:48:52;28.30;49.40
57088;DHT22;42965;52.846;6.614;2023-05-31T10:51:19;28.80;49.90
57088;DHT22;42965;52.846;6.614;2023-05-31T10:53:46;28.90;50.70
57088;DHT22;42965;52.846;6.614;2023-05-31T10:56:13;29.10;49.10
57088;DHT22;42965;52.846;6.614;2023-05-31T10:58:49;28.50;49.70
57088;DHT22;42965;52.846;6.614;2023-05-31T11:01:19;28.70;48.70
57088;DHT22;42965;52.846;6.614;2023-05-31T11:03:51;27.80;49.40
57088;DHT22;42965;52.846;6.614;2023-05-31T11:06:23;28.10;50.10
57088;DHT22;42965;52.846;6.614;2023-05-31T11:09:03;28.60;49.90
57088;DHT22;42965;52.846;6.614;2023-05-31T11:14:07;28.80;50.60
57088;DHT22;42965;52.846;6.614;2023-05-31T11:19:30;28.00;50.10
57088;DHT22;42965;52.846;6.614;2023-05-31T11:22:13;28.10;50.70
57088;DHT22;42965;52.846;6.614;2023-05-31T11:24:54;28.60;51.60
57088;DHT22;42965;52.846;6.614;2023-05-31T11:27:35;27.70;51.60
57088;DHT22;42965;52.846;6.614;2023-05-31T11:30:06;28.20;52.30
57088;DHT22;42965;52.846;6.614;2023-05-31T11:35:10;28.20;51.40
57088;DHT22;42965;52.846;6.614;2023-05-31T11:37:41;28.00;52.00
57088;DHT22;42965;52.846;6.614;2023-05-31T11:40:10;28.00;52.00
57088;DHT22;42965;52.846;6.614;2023-05-31T11:42:42;27.70;52.40
57088;DHT22;42965;52.846;6.614;2023-05-31T11:45:13;27.60;52.30
57088;DHT22;42965;52.846;6.614;2023-05-31T11:50:24;28.00;52.90
57088;DHT22;42965;52.846;6.614;2023-05-31T11:52:51;28.10;52.60
57088;DHT22;42965;52.846;6.614;2023-05-31T11:55:23;27.90;52.00
57088;DHT22;42965;52.846;6.614;2023-05-31T11:57:49;28.10;52.40
57088;DHT22;42965;52.846;6.614;2023-05-31T12:00:22;27.60;51.60
57088;DHT22;42965;52.846;6.614;2023-05-31T12:02:54;27.90;52.00
57088;DHT22;42965;52.846;6.614;2023-05-31T12:05:23;28.10;51.50
57088;DHT22;42965;52.846;6.614;2023-05-31T12:07:53;28.20;50.70
57088;DHT22;42965;52.846;6.614;2023-05-31T12:10:23;27.80;51.00
57088;DHT22;42965;52.846;6.614;2023-05-31T12:12:53;27.90;50.60
57088;DHT22;42965;52.846;6.614;2023-05-31T12:15:19;27.90;51.50
57088;DHT22;42965;52.846;6.614;2023-05-31T12:17:49;27.90;50.90
57088;DHT22;42965;52.846;6.614;2023-05-31T12:20:15;27.80;51.20
57088;DHT22;42965;52.846;6.614;2023-05-31T12:22:41;28.00;50.40
57088;DHT22;42965;52.846;6.614;2023-05-31T12:25:08;28.00;50.40
57088;DHT22;42965;52.846;6.614;2023-05-31T12:27:34;28.10;50.70
57088;DHT22;42965;52.846;6.614;2023-05-31T12:30:02;28.20;50.90
57088;DHT22;42965;52.846;6.614;2023-05-31T12:32:30;27.90;50.20
57088;DHT22;42965;52.846;6.614;2023-05-31T12:35:07;28.40;50.40
57088;DHT22;42965;52.846;6.614;2023-05-31T12:37:38;28.00;49.70
57088;DHT22;42965;52.846;6.614;2023-05-31T12:40:23;27.90;50.70
57088;DHT22;42965;52.846;6.614;2023-05-31T12:42:49;28.30;50.40
57088;DHT22;42965;52.846;6.614;2023-05-31T12:45:18;28.30;50.70
57088;DHT22;42965;52.846;6.614;2023-05-31T12:47:45;27.80;50.50
57088;DHT22;42965;52.846;6.614;2023-05-31T12:50:21;28.30;50.70
57088;DHT22;42965;52.846;6.614;2023-05-31T12:52:55;28.20;50.20
57088;DHT22;42965;52.846;6.614;2023-05-31T12:55:21;28.10;49.80
57088;DHT22;42965;52.846;6.614;2023-05-31T12:57:48;27.90;49.40
57088;DHT22;42965;52.846;6.614;2023-05-31T13:00:14;28.30;49.50
57088;DHT22;42965;52.846;6.614;2023-05-31T13:02:44;28.10;48.50
57088;DHT22;42965;52.846;6.614;2023-05-31T13:05:10;28.20;49.40
57088;DHT22;42965;52.846;6.614;2023-05-31T13:07:37;27.70;48.90
57088;DHT22;42965;52.846;6.614;2023-05-31T13:10:04;28.50;48.90
57088;DHT22;42965;52.846;6.614;2023-05-31T13:12:33;28.90;48.80
57088;DHT22;42965;52.846;6.614;2023-05-31T13:14:59;28.40;48.40
57088;DHT22;42965;52.846;6.614;2023-05-31T13:17:26;28.40;48.40
57088;DHT22;42965;52.846;6.614;2023-05-31T13:19:52;28.40;48.80
57088;DHT22;42965;52.846;6.614;2023-05-31T13:22:18;28.60;48.60
57088;DHT22;42965;52.846;6.614;2023-05-31T13:24:45;28.30;48.20
57088;DHT22;42965;52.846;6.614;2023-05-31T13:27:11;28.20;48.50
57088;DHT22;42965;52.846;6.614;2023-05-31T13:29:38;28.30;47.90
57088;DHT22;42965;52.846;6.614;2023-05-31T13:32:04;28.30;47.80
57088;DHT22;42965;52.846;6.614;2023-05-31T13:34:31;28.90;47.70
57088;DHT22;42965;52.846;6.614;2023-05-31T13:36:58;28.80;47.30
57088;DHT22;42965;52.846;6.614;2023-05-31T13:39:25;28.30;47.50
57088;DHT22;42965;52.846;6.614;2023-05-31T13:41:52;28.10;47.70
57088;DHT22;42965;52.846;6.614;2023-05-31T13:44:18;28.30;48.00
57088;DHT22;42965;52.846;6.614;2023-05-31T13:46:45;28.70;48.00
57088;DHT22;42965;52.846;6.614;2023-05-31T13:49:11;28.80;47.40
57088;DHT22;42965;52.846;6.614;2023-05-31T13:51:41;28.50;46.60
57088;DHT22;42965;52.846;6.614;2023-05-31T13:54:08;29.00;46.90
57088;DHT22;42965;52.846;6.614;2023-05-31T13:56:34;28.50;46.40
57088;DHT22;42965;52.846;6.614;2023-05-31T13:59:00;29.10;45.90
57088;DHT22;42965;52.846;6.614;2023-05-31T14:01:26;29.00;45.80
57088;DHT22;42965;52.846;6.614;2023-05-31T14:03:53;28.50;45.80
57088;DHT22;42965;52.846;6.614;2023-05-31T14:06:22;28.90;46.00
57088;DHT22;42965;52.846;6.614;2023-05-31T14:08:49;29.20;45.70
57088;DHT22;42965;52.846;6.614;2023-05-31T14:11:17;29.10;44.90
57088;DHT22;42965;52.846;6.614;2023-05-31T14:13:43;29.10;45.80
57088;DHT22;42965;52.846;6.614;2023-05-31T14:16:09;29.00;45.30
57088;DHT22;42965;52.846;6.614;2023-05-31T14:18:36;28.80;45.40
57088;DHT22;42965;52.846;6.614;2023-05-31T14:21:02;28.60;45.90
57088;DHT22;42965;52.846;6.614;2023-05-31T14:23:28;28.20;45.90
57088;DHT22;42965;52.846;6.614;2023-05-31T14:25:55;28.60;46.00
57088;DHT22;42965;52.846;6.614;2023-05-31T14:28:22;28.00;46.40
57088;DHT22;42965;52.846;6.614;2023-05-31T14:30:48;27.90;46.50
57088;DHT22;42965;52.846;6.614;2023-05-31T14:33:15;27.60;46.30
57088;DHT22;42965;52.846;6.614;2023-05-31T14:35:41;27.90;46.60
57088;DHT22;42965;52.846;6.614;2023-05-31T14:38:08;28.10;45.90
57088;DHT22;42965;52.846;6.614;2023-05-31T14:40:35;28.10;46.20
57088;DHT22;42965;52.846;6.614;2023-05-31T14:43:01;27.60;46.20
57088;DHT22;42965;52.846;6.614;2023-05-31T14:45:27;27.80;46.30
57088;DHT22;42965;52.846;6.614;2023-05-31T14:47:53;27.80;46.20
57088;DHT22;42965;52.846;6.614;2023-05-31T14:50:19;26.90;46.50
57088;DHT22;42965;52.846;6.614;2023-05-31T14:52:49;26.90;47.50
57088;DHT22;42965;52.846;6.614;2023-05-31T14:55:16;26.70;47.60
57088;DHT22;42965;52.846;6.614;2023-05-31T14:57:42;26.40;48.70
57088;DHT22;42965;52.846;6.614;2023-05-31T15:00:09;25.70;49.10
57088;DHT22;42965;52.846;6.614;2023-05-31T15:02:35;25.70;49.50
57088;DHT22;42965;52.846;6.614;2023-05-31T15:05:01;25.40;49.90
57088;DHT22;42965;52.846;6.614;2023-05-31T15:07:28;25.10;49.90
57088;DHT22;42965;52.846;6.614;2023-05-31T15:09:54;24.80;50.40
57088;DHT22;42965;52.846;6.614;2023-05-31T15:12:20;24.50;50.90
57088;DHT22;42965;52.846;6.614;2023-05-31T15:14:47;24.50;51.70
57088;DHT22;42965;52.846;6.614;2023-05-31T15:17:14;24.70;52.40
57088;DHT22;42965;52.846;6.614;2023-05-31T15:19:40;24.50;51.60
57088;DHT22;42965;52.846;6.614;2023-05-31T15:22:07;24.20;52.70
57088;DHT22;42965;52.846;6.614;2023-05-31T15:24:33;24.30;52.50
57088;DHT22;42965;52.846;6.614;2023-05-31T15:26:59;24.00;53.40
57088;DHT22;42965;52.846;6.614;2023-05-31T15:29:25;23.90;53.80
57088;DHT22;42965;52.846;6.614;2023-05-31T15:31:52;23.70;54.40
57088;DHT22;42965;52.846;6.614;2023-05-31T15:34:21;23.50;54.50
57088;DHT22;42965;52.846;6.614;2023-05-31T15:36:47;23.60;54.60
57088;DHT22;42965;52.846;6.614;2023-05-31T15:39:13;23.60;55.30
57088;DHT22;42965;52.846;6.614;2023-05-31T15:41:43;23.60;55.90
57088;DHT22;42965;52.846;6.614;2023-05-31T15:44:09;23.60;55.70
57088;DHT22;42965;52.846;6.614;2023-05-31T15:46:36;23.60;56.50
57088;DHT22;42965;52.846;6.614;2023-05-31T15:49:05;23.40;57.30
57088;DHT22;42965;52.846;6.614;2023-05-31T15:51:31;23.30;57.80
57088;DHT22;42965;52.846;6.614;2023-05-31T15:53:58;23.00;59.20
57088;DHT22;42965;52.846;6.614;2023-05-31T15:56:24;22.80;58.80
57088;DHT22;42965;52.846;6.614;2023-05-31T15:58:52;22.70;59.30
57088;DHT22;42965;52.846;6.614;2023-05-31T16:01:18;22.70;60.00
57088;DHT22;42965;52.846;6.614;2023-05-31T16:03:45;22.50;60.90
57088;DHT22;42965;52.846;6.614;2023-05-31T16:06:11;22.40;63.60
57088;DHT22;42965;52.846;6.614;2023-05-31T16:08:37;22.20;65.60
57088;DHT22;42965;52.846;6.614;2023-05-31T16:11:03;22.00;67.80
57088;DHT22;42965;52.846;6.614;2023-05-31T16:13:30;22.10;70.10
57088;DHT22;42965;52.846;6.614;2023-05-31T16:15:56;21.90;73.60
57088;DHT22;42965;52.846;6.614;2023-05-31T16:18:22;21.80;75.00
57088;DHT22;42965;52.846;6.614;2023-05-31T16:20:49;21.60;76.20
57088;DHT22;42965;52.846;6.614;2023-05-31T16:23:15;21.30;81.20
57088;DHT22;42965;52.846;6.614;2023-05-31T16:25:41;21.40;86.50
57088;DHT22;42965;52.846;6.614;2023-05-31T16:28:07;21.50;89.00
57088;DHT22;42965;52.846;6.614;2023-05-31T16:30:34;21.30;90.10
57088;DHT22;42965;52.846;6.614;2023-05-31T16:33:00;21.10;95.20
57088;DHT22;42965;52.846;6.614;2023-05-31T16:35:27;21.30;99.90
57088;DHT22;42965;52.846;6.614;2023-05-31T16:37:53;21.30;99.90
57088;DHT22;42965;52.846;6.614;2023-05-31T16:40:19;21.20;99.90
57088;DHT22;42965;52.846;6.614;2023-05-31T16:42:49;21.00;99.90
57088;DHT22;42965;52.846;6.614;2023-05-31T16:45:19;20.80;99.90
57088;DHT22;42965;52.846;6.614;2023-05-31T16:47:45;20.70;99.90
57088;DHT22;42965;52.846;6.614;2023-05-31T16:50:11;20.60;99.90
57088;DHT22;42965;52.846;6.614;2023-05-31T16:52:38;20.50;99.90
57088;DHT22;42965;52.846;6.614;2023-05-31T16:55:04;20.40;99.90
57088;DHT22;42965;52.846;6.614;2023-05-31T16:57:31;20.30;99.90
57088;DHT22;42965;52.846;6.614;2023-05-31T16:59:58;20.10;99.90
57088;DHT22;42965;52.846;6.614;2023-05-31T17:02:25;20.00;99.90
57088;DHT22;42965;52.846;6.614;2023-05-31T17:04:51;19.90;99.90
57088;DHT22;42965;52.846;6.614;2023-05-31T17:07:18;19.80;99.90